CDT,Max TemperatureF,Mean TemperatureF,Min TemperatureF,Max Dew PointF,MeanDew PointF,Min DewpointF,Max Humidity, Mean Humidity, Min Humidity, Max Sea Level PressureIn, Mean Sea Level PressureIn, Min Sea Level PressureIn, Max VisibilityMiles, Mean VisibilityMiles, Min VisibilityMiles, Max Wind SpeedMPH, Mean Wind SpeedMPH, Max Gust SpeedMPH,PrecipitationIn, CloudCover, Events, WindDirDegrees
2013-3-1,28,26,24,23,21,16,91,82,71,30.33,30.24,30.16,10,9,4,14,11,17,0.00,8,Snow,356
2013-3-2,28,20,13,21,18,11,93,81,69,30.33,30.26,30.16,10,10,10,9,7,,0.00,3,,281
2013-3-3,34,26,18,25,21,16,89,75,62,30.15,29.97,29.87,10,10,10,18,11,24,0.00,4,,131
2013-3-4,35,32,28,32,29,25,99,89,81,29.96,29.83,29.77,10,8,1,21,14,25,0.00,8,Snow,97
2013-3-5,32,28,24,31,24,20,99,84,76,30.31,30.08,29.94,10,8,1,26,13,34,0.00,7,Snow,317
2013-3-6,28,24,20,22,21,19,93,84,74,30.42,30.36,30.31,10,10,10,17,11,21,0.00,7,,1
2013-3-7,35,25,15,28,21,14,96,86,69,30.35,30.29,30.21,10,7,3,18,8,17,0.00,0,,123
2013-3-8,43,34,24,34,29,23,94,83,68,30.26,30.17,30.01,10,7,3,18,11,21,0.00,2,Rain,128
2013-3-9,41,38,35,40,37,34,99,96,91,30.00,29.78,29.63,5,3,0,22,12,26,0.55,8,Fog-Rain,122
2013-3-10,38,32,27,38,32,26,100,97,94,29.80,29.74,29.66,10,4,0,26,17,33,0.23,8,Rain-Snow,353
2013-3-11,27,22,17,26,22,15,96,88,79,29.94,29.83,29.76,10,7,1,23,18,29,0.00,7,Snow,308
2013-3-12,31,23,15,26,20,13,93,83,74,30.26,30.08,29.95,10,8,1,29,15,38,0.00,4,Snow,295
2013-3-13,28,20,12,22,17,10,91,80,67,30.45,30.36,30.26,10,10,10,13,7,,0.00,0,,292
2013-3-14,42,32,23,34,29,20,98,82,69,30.28,30.12,30.06,10,10,5,12,7,,0.00,1,,177
2013-3-15,51,41,31,44,36,31,99,91,69,30.06,29.84,29.72,10,5,2,15,5,,0.00,2,,67
2013-3-16,34,30,26,33,26,21,97,84,74,30.21,30.04,29.82,10,8,2,22,14,28,0.00,8,,360
2013-3-17,38,30,21,29,23,17,89,77,63,30.20,30.02,29.83,10,10,5,22,12,25,0.00,4,Snow,90
2013-3-18,33,28,21,32,23,14,100,81,68,29.99,29.83,29.71,10,8,1,31,13,38,0.04,6,Snow,281
2013-3-19,34,25,16,24,16,8,86,69,55,30.26,30.14,30.00,10,10,10,18,12,25,0.00,1,Snow,317
2013-3-20,27,20,14,18,12,6,83,68,58,30.35,30.26,30.13,10,10,7,23,16,31,0.00,4,Snow,325
2013-3-21,33,22,12,19,13,7,84,68,48,30.13,30.05,29.96,10,10,10,10,6,,0.00,0,,75
2013-3-22,34,26,18,27,19,15,89,72,49,30.06,30.03,29.99,10,10,10,10,5,16,0.00,4,Snow,58
2013-3-23,36,31,26,27,23,19,91,73,53,30.13,30.07,30.02,10,10,7,15,7,18,0.00,4,,25
2013-3-24,30,28,26,29,26,23,97,89,80,30.04,29.97,29.92,10,4,1,22,14,26,0.00,8,Rain-Snow,347
2013-3-25,34,30,26,28,25,22,96,81,64,30.27,30.11,29.99,10,8,2,21,16,26,0.00,6,Snow,339
2013-3-26,36,28,20,25,21,18,89,74,58,30.34,30.30,30.27,10,10,10,16,9,21,0.00,2,,301
2013-3-27,46,34,22,32,26,21,94,74,42,30.33,30.29,30.24,10,10,10,12,6,,0.00,0,,141
2013-3-28,54,40,27,35,31,26,94,71,42,30.30,30.26,30.20,10,10,4,13,6,21,0.00,2,,116
2013-3-29,61,46,30,39,34,29,96,68,35,30.26,30.19,30.09,10,9,3,13,7,18,0.00,0,,133
2013-3-30,58,50,41,49,42,34,96,80,62,30.08,29.95,29.87,10,9,3,16,8,20,0.05,5,Rain,200
2013-3-31,48,40,31,40,32,22,100,77,43,30.11,29.96,29.89,10,7,0,25,9,32,0.00,3,Fog-Snow,322